Ryuhomaru — JD2639 — position and weather

sailwx.info

Track history (hours):
 
Tides and Currents Weather Stations Pressure Air Temp Water Temp Dewpoint Dewpoint Depression Visibility Wind Speed Wind Dir Waves Ship Positions

Ryuhomaru

Last reported at 2017-Jul-26 00:27 UTC. Time now 2017-Jul-26 16:53 UTC.
Position N 34°33' E 135°25'.

Length 42 m; draft 3.5 m.

Type: Tug. MMSI: 431000586.

Date/timePositionNaut miles runAvg speedWind from/ knotsBaromVisibWave heightAir tempDewpointWater temp
2017-Jul-26 00:27N 34°33' E 135°25'0 0.2
2017-Jul-25 23:58N 34°33' E 135°25'0 0.1
2017-Jul-25 23:24N 34°33' E 135°25'0 0.0
2017-Jul-25 22:59N 34°33' E 135°25'0 0.1
2017-Jul-25 22:21N 34°33' E 135°25'0 0.1
2017-Jul-25 21:47N 34°33' E 135°25'0 0.2
2017-Jul-25 21:27N 34°33' E 135°25'0 0.2
2017-Jul-25 20:54N 34°33' E 135°25'0 0.3
2017-Jul-25 20:30N 34°33' E 135°25'0 0.2
2017-Jul-25 19:48N 34°33' E 135°25'0 0.1
2017-Jul-25 19:30N 34°33' E 135°25'0 0.2
2017-Jul-25 19:00N 34°33' E 135°25'0 0.3
2017-Jul-25 18:30N 34°33' E 135°25'0 0.1
2017-Jul-25 18:00N 34°33' E 135°25'0 0.1
2017-Jul-25 17:28N 34°33' E 135°25'0 0.1
2017-Jul-25 17:00N 34°33' E 135°25'0 0.0
2017-Jul-25 16:30N 34°33' E 135°25'0 0.1
2017-Jul-25 15:59N 34°33' E 135°25'0 0.2
2017-Jul-25 15:30N 34°33' E 135°25'0 0.2
2017-Jul-25 15:00N 34°33' E 135°25'0 0.1
2017-Jul-25 13:59N 34°33' E 135°25'0 0.4
2017-Jul-25 13:19N 34°33' E 135°25'0 0.3
2017-Jul-25 12:58N 34°33' E 135°25'0 0.1
2017-Jul-25 12:23N 34°33' E 135°25'0 0.1
2017-Jul-25 11:20N 34°33' E 135°25'0 0.6
2017-Jul-25 11:00N 34°33' E 135°25'0 0.2
2017-Jul-25 10:20N 34°33' E 135°25'0 0.0
2017-Jul-25 09:10N 34°33' E 135°25'0 0.2
2017-Jul-25 08:51N 34°33' E 135°25'0 0.1
2017-Jul-25 08:29N 34°33' E 135°25'0 0.1
2017-Jul-25 07:54N 34°33' E 135°25'0 0.0
2017-Jul-25 06:46N 34°33' E 135°25'3 2.0
2017-Jul-25 05:06N 34°33' E 135°21'0 3.8
2017-Jul-25 04:59N 34°33' E 135°20'2 3.5
2017-Jul-25 04:30N 34°34' E 135°22'2 4.4
2017-Jul-25 04:00N 34°36' E 135°24'0 0.0
2017-Jul-25 03:29N 34°36' E 135°24'0 0.0
2017-Jul-25 03:00N 34°36' E 135°24'0 0.0
2017-Jul-25 02:30N 34°36' E 135°24'0 0.0
2017-Jul-25 02:00N 34°36' E 135°24'0 0.0
2017-Jul-25 01:30N 34°36' E 135°24'0 0.0
2017-Jul-25 01:00N 34°36' E 135°24'0 0.0
2017-Jul-25 00:30N 34°36' E 135°24'0 0.0
2017-Jul-25 00:00N 34°36' E 135°24'0 0.0
2017-Jul-24 23:30N 34°36' E 135°24'2 4.0
2017-Jul-24 23:00N 34°35' E 135°26'0 0.9
2017-Jul-24 22:30N 34°35' E 135°25'2 3.9
2017-Jul-24 22:00N 34°33' E 135°26'0 0.0
2017-Jul-24 09:23N 34°33' E 135°27'1 1.4
2017-Jul-24 08:59N 34°33' E 135°26'511.1
2017-Jul-24 08:31N 34°39' E 135°24'1 2.3
2017-Jul-24 08:00N 34°39' E 135°26'610.7
2017-Jul-24 07:28N 34°33' E 135°25'1 1.0
2017-Jul-24 05:57N 34°33' E 135°27'1 2.1
2017-Jul-24 05:20N 34°33' E 135°25'0 0.0
2017-Jul-24 04:59N 34°33' E 135°25'0 0.1
2017-Jul-24 04:30N 34°33' E 135°25'0 0.8
2017-Jul-24 04:00N 34°33' E 135°25'4 4.8
2017-Jul-24 03:14N 34°33' E 135°21'1 3.6
2017-Jul-24 03:00N 34°34' E 135°20'0 0.9
2017-Jul-24 02:30N 34°34' E 135°21'3 5.7
2017-Jul-24 02:00N 34°33' E 135°24'0 0.6
2017-Jul-24 01:30N 34°33' E 135°24'2 3.4
2017-Jul-24 01:00N 34°32' E 135°23'0 0.1
2017-Jul-24 00:29N 34°32' E 135°23'0 0.0
2017-Jul-24 00:00N 34°32' E 135°23'0 0.0
2017-Jul-23 23:30N 34°32' E 135°23'0 0.0
2017-Jul-23 23:00N 34°32' E 135°23'3 4.2
2017-Jul-23 22:17N 34°29' E 135°22'0 0.3
2017-Jul-23 22:00N 34°29' E 135°22'2 2.9
2017-Jul-23 21:29N 34°30' E 135°22'1 1.8
2017-Jul-23 21:00N 34°31' E 135°22'4 8.8
2017-Jul-23 20:30N 34°33' E 135°27'0 0.0
2017-Jul-23 02:24N 34°33' E 135°27'3 7.6
2017-Jul-23 02:00N 34°31' E 135°24'0 0.7
2017-Jul-23 01:21N 34°31' E 135°23'1 3.5
2017-Jul-23 01:00N 34°32' E 135°23'1 1.9
2017-Jul-23 00:28N 34°33' E 135°22'3 6.6
2017-Jul-22 23:59N 34°33' E 135°26'0 0.0
2017-Jul-22 07:52N 34°33' E 135°27'3 7.7
2017-Jul-22 07:30N 34°32' E 135°24'1 2.6
2017-Jul-22 06:59N 34°31' E 135°23'3 6.5
2017-Jul-22 06:30N 34°33' E 135°25'1 0.2
2017-Jul-22 00:54N 34°33' E 135°27'1 1.9
2017-Jul-22 00:28N 34°33' E 135°26'0 0.7
2017-Jul-21 23:59N 34°33' E 135°26'1 0.6
2017-Jul-21 23:00N 34°33' E 135°27'0 0.0
2017-Jul-21 22:31N 34°33' E 135°27'0 0.0
2017-Jul-21 22:01N 34°33' E 135°27'0 0.0
2017-Jul-21 05:29N 34°33' E 135°27'0 0.0
2017-Jul-21 03:10N 34°33' E 135°27'0 0.0
2017-Jul-21 03:00N 34°33' E 135°27'0 0.0
2017-Jul-21 01:48N 34°33' E 135°27'0 0.0
2017-Jul-21 01:23N 34°33' E 135°27'0 0.0
2017-Jul-21 01:00N 34°33' E 135°27'0 0.0
2017-Jul-21 00:30N 34°33' E 135°27'0 0.0
2017-Jul-20 23:59N 34°33' E 135°27'3 5.3
2017-Jul-20 23:30N 34°33' E 135°23'4 3.7
2017-Jul-20 22:26N 34°29' E 135°22'1 2.9
2017-Jul-20 22:00N 34°30' E 135°22'1 2.1
2017-Jul-20 21:30N 34°31' E 135°21'5 8.5
2017-Jul-20 20:57N 34°33' E 135°27'0 0.0
2017-Jul-20 20:30N 34°33' E 135°27'0 0.0
2017-Jul-20 20:00N 34°33' E 135°27'0 0.0
2017-Jul-20 08:29N 34°33' E 135°27'4 8.7
2017-Jul-20 08:00N 34°31' E 135°22'611.3
2017-Jul-20 07:29N 34°26' E 135°19'3 4.6
2017-Jul-20 06:56N 34°28' E 135°20'4 9.1
2017-Jul-20 06:30N 34°31' E 135°24'0 0.1
2017-Jul-20 03:48N 34°31' E 135°24'4 1.6
2017-Jul-20 01:22N 34°33' E 135°20'1 3.8
2017-Jul-20 00:59N 34°34' E 135°19'4 7.6
2017-Jul-20 00:29N 34°34' E 135°23'3 5.6
2017-Jul-20 00:00N 34°33' E 135°27'0 0.0
2017-Jul-19 23:30N 34°33' E 135°27'0 0.0
2017-Jul-19 23:00N 34°33' E 135°27'0 0.0
2017-Jul-19 09:40N 34°33' E 135°27'0 0.0
2017-Jul-19 09:30N 34°33' E 135°27'3 6.0
2017-Jul-19 08:55N 34°31' E 135°23'0 0.1
2017-Jul-19 05:48N 34°31' E 135°23'0 0.8
2017-Jul-19 05:30N 34°31' E 135°23'2 4.2
2017-Jul-19 05:00N 34°33' E 135°24'0 0.0
2017-Jul-19 04:30N 34°33' E 135°24'1 1.1
2017-Jul-19 03:57N 34°33' E 135°24'3 5.9
2017-Jul-19 03:28N 34°33' E 135°20'2 3.9
2017-Jul-19 03:00N 34°32' E 135°19'3 0.9
2017-Jul-18 23:41N 34°32' E 135°23'210.5
2017-Jul-18 23:29N 34°30' E 135°21'5 9.5
2017-Jul-18 23:00N 34°26' E 135°19'1 1.3
2017-Jul-18 22:27N 34°27' E 135°19'3 6.3
2017-Jul-18 22:00N 34°29' E 135°20'612.1
2017-Jul-18 21:29N 34°33' E 135°26'1 1.6
2017-Jul-18 21:00N 34°33' E 135°27'0 0.0
2017-Jul-18 20:30N 34°33' E 135°27'0 0.0
2017-Jul-18 05:21N 34°33' E 135°26'3 9.3
2017-Jul-18 05:00N 34°36' E 135°24'1 1.9
2017-Jul-18 04:30N 34°37' E 135°24'1 1.7
2017-Jul-18 04:00N 34°36' E 135°24'0 0.1
2017-Jul-18 03:23N 34°36' E 135°24'0 0.0
2017-Jul-18 02:56N 34°36' E 135°24'2 2.6
2017-Jul-18 02:07N 34°34' E 135°24'0 0.0
2017-Jul-18 02:01N 34°34' E 135°24'0 0.1
2017-Jul-18 01:26N 34°34' E 135°24'1 1.7
2017-Jul-18 00:56N 34°33' E 135°23'3 6.2
2017-Jul-18 00:30N 34°33' E 135°20'2 3.4
2017-Jul-18 00:00N 34°33' E 135°22'4 4.6
2017-Jul-17 23:13N 34°33' E 135°27'0 0.0
2017-Jul-17 23:00N 34°33' E 135°27'0 0.0
2017-Jul-17 22:30N 34°33' E 135°27'0 0.0
2017-Jul-17 07:35N 34°33' E 135°27'0 0.1
2017-Jul-17 07:29N 34°33' E 135°27'2 4.9
2017-Jul-17 07:00N 34°33' E 135°24'2 4.0
2017-Jul-17 06:30N 34°33' E 135°26'0 0.2
2017-Jul-17 05:51N 34°33' E 135°26'0 1.1
2017-Jul-17 05:30N 34°33' E 135°27'0 0.2
2017-Jul-17 04:40N 34°33' E 135°27'0 0.0
2017-Jul-17 04:30N 34°33' E 135°27'0 0.0
2017-Jul-17 03:52N 34°33' E 135°27'0 0.0
2017-Jul-17 02:48N 34°33' E 135°27'0 0.0
2017-Jul-17 01:24N 34°33' E 135°27'0 0.0
2017-Jul-17 00:59N 34°33' E 135°27'0 0.0
2017-Jul-17 00:27N 34°33' E 135°27'0 0.0
2017-Jul-17 00:00N 34°33' E 135°27'710.4
2017-Jul-16 23:20N 34°29' E 135°20'3 8.6
2017-Jul-16 23:00N 34°26' E 135°19'1 1.4
2017-Jul-16 22:30N 34°26' E 135°19'3 6.6
2017-Jul-16 21:58N 34°30' E 135°21'510.2
2017-Jul-16 21:30N 34°33' E 135°24'2 3.5
2017-Jul-16 21:00N 34°33' E 135°27'0 0.0
2017-Jul-16 20:24N 34°33' E 135°27'0 0.0
2017-Jul-16 05:16N 34°33' E 135°27'0 0.0
2017-Jul-16 04:58N 34°33' E 135°27'0 0.0
2017-Jul-16 04:30N 34°33' E 135°27'0 0.0
2017-Jul-16 04:00N 34°33' E 135°27'0 0.0
2017-Jul-16 03:29N 34°33' E 135°27'1 1.1
2017-Jul-16 02:59N 34°33' E 135°26'0 0.0
2017-Jul-16 02:30N 34°33' E 135°26'0 0.0
2017-Jul-16 02:00N 34°33' E 135°26'0 0.3
2017-Jul-16 01:30N 34°33' E 135°26'2 3.7
2017-Jul-16 00:55N 34°33' E 135°23'3 6.2
2017-Jul-16 00:30N 34°34' E 135°20'  
Track history (hours):
 
Tides and Currents Weather Stations Pressure Air Temp Water Temp Dewpoint Dewpoint Depression Visibility Wind Speed Wind Dir Waves Ship Positions

Ryuhomaru

Last reported at 2017-Jul-26 00:27 UTC. Time now 2017-Jul-26 16:53 UTC.
Position N 34°33' E 135°25'.

Length 42 m; draft 3.5 m.

Type: Tug. MMSI: 431000586.

Date/timePositionNaut miles runAvg speedWind from/ knotsBaromVisibWave heightAir tempDewpointWater temp
2017-Jul-26 00:27N 34°33' E 135°25'0 0.2
2017-Jul-25 23:58N 34°33' E 135°25'0 0.1
2017-Jul-25 23:24N 34°33' E 135°25'0 0.0
2017-Jul-25 22:59N 34°33' E 135°25'0 0.1
2017-Jul-25 22:21N 34°33' E 135°25'0 0.1
2017-Jul-25 21:47N 34°33' E 135°25'0 0.2
2017-Jul-25 21:27N 34°33' E 135°25'0 0.2
2017-Jul-25 20:54N 34°33' E 135°25'0 0.3
2017-Jul-25 20:30N 34°33' E 135°25'0 0.2
2017-Jul-25 19:48N 34°33' E 135°25'0 0.1
2017-Jul-25 19:30N 34°33' E 135°25'0 0.2
2017-Jul-25 19:00N 34°33' E 135°25'0 0.3
2017-Jul-25 18:30N 34°33' E 135°25'0 0.1
2017-Jul-25 18:00N 34°33' E 135°25'0 0.1
2017-Jul-25 17:28N 34°33' E 135°25'0 0.1
2017-Jul-25 17:00N 34°33' E 135°25'0 0.0
2017-Jul-25 16:30N 34°33' E 135°25'0 0.1
2017-Jul-25 15:59N 34°33' E 135°25'0 0.2
2017-Jul-25 15:30N 34°33' E 135°25'0 0.2
2017-Jul-25 15:00N 34°33' E 135°25'0 0.1
2017-Jul-25 13:59N 34°33' E 135°25'0 0.4
2017-Jul-25 13:19N 34°33' E 135°25'0 0.3
2017-Jul-25 12:58N 34°33' E 135°25'0 0.1
2017-Jul-25 12:23N 34°33' E 135°25'0 0.1
2017-Jul-25 11:20N 34°33' E 135°25'0 0.6
2017-Jul-25 11:00N 34°33' E 135°25'0 0.2
2017-Jul-25 10:20N 34°33' E 135°25'0 0.0
2017-Jul-25 09:10N 34°33' E 135°25'0 0.2
2017-Jul-25 08:51N 34°33' E 135°25'0 0.1
2017-Jul-25 08:29N 34°33' E 135°25'0 0.1
2017-Jul-25 07:54N 34°33' E 135°25'0 0.0
2017-Jul-25 06:46N 34°33' E 135°25'3 2.0
2017-Jul-25 05:06N 34°33' E 135°21'0 3.8
2017-Jul-25 04:59N 34°33' E 135°20'2 3.5
2017-Jul-25 04:30N 34°34' E 135°22'2 4.4
2017-Jul-25 04:00N 34°36' E 135°24'0 0.0
2017-Jul-25 03:29N 34°36' E 135°24'0 0.0
2017-Jul-25 03:00N 34°36' E 135°24'0 0.0
2017-Jul-25 02:30N 34°36' E 135°24'0 0.0
2017-Jul-25 02:00N 34°36' E 135°24'0 0.0
2017-Jul-25 01:30N 34°36' E 135°24'0 0.0
2017-Jul-25 01:00N 34°36' E 135°24'0 0.0
2017-Jul-25 00:30N 34°36' E 135°24'0 0.0
2017-Jul-25 00:00N 34°36' E 135°24'0 0.0
2017-Jul-24 23:30N 34°36' E 135°24'2 4.0
2017-Jul-24 23:00N 34°35' E 135°26'0 0.9
2017-Jul-24 22:30N 34°35' E 135°25'2 3.9
2017-Jul-24 22:00N 34°33' E 135°26'0 0.0
2017-Jul-24 09:23N 34°33' E 135°27'1 1.4
2017-Jul-24 08:59N 34°33' E 135°26'511.1
2017-Jul-24 08:31N 34°39' E 135°24'1 2.3
2017-Jul-24 08:00N 34°39' E 135°26'610.7
2017-Jul-24 07:28N 34°33' E 135°25'1 1.0
2017-Jul-24 05:57N 34°33' E 135°27'1 2.1
2017-Jul-24 05:20N 34°33' E 135°25'0 0.0
2017-Jul-24 04:59N 34°33' E 135°25'0 0.1
2017-Jul-24 04:30N 34°33' E 135°25'0 0.8
2017-Jul-24 04:00N 34°33' E 135°25'4 4.8
2017-Jul-24 03:14N 34°33' E 135°21'1 3.6
2017-Jul-24 03:00N 34°34' E 135°20'0 0.9
2017-Jul-24 02:30N 34°34' E 135°21'3 5.7
2017-Jul-24 02:00N 34°33' E 135°24'0 0.6
2017-Jul-24 01:30N 34°33' E 135°24'2 3.4
2017-Jul-24 01:00N 34°32' E 135°23'0 0.1
2017-Jul-24 00:29N 34°32' E 135°23'0 0.0
2017-Jul-24 00:00N 34°32' E 135°23'0 0.0
2017-Jul-23 23:30N 34°32' E 135°23'0 0.0
2017-Jul-23 23:00N 34°32' E 135°23'3 4.2
2017-Jul-23 22:17N 34°29' E 135°22'0 0.3
2017-Jul-23 22:00N 34°29' E 135°22'2 2.9
2017-Jul-23 21:29N 34°30' E 135°22'1 1.8
2017-Jul-23 21:00N 34°31' E 135°22'4 8.8
2017-Jul-23 20:30N 34°33' E 135°27'0 0.0
2017-Jul-23 02:24N 34°33' E 135°27'3 7.6
2017-Jul-23 02:00N 34°31' E 135°24'0 0.7
2017-Jul-23 01:21N 34°31' E 135°23'1 3.5
2017-Jul-23 01:00N 34°32' E 135°23'1 1.9
2017-Jul-23 00:28N 34°33' E 135°22'3 6.6
2017-Jul-22 23:59N 34°33' E 135°26'0 0.0
2017-Jul-22 07:52N 34°33' E 135°27'3 7.7
2017-Jul-22 07:30N 34°32' E 135°24'1 2.6
2017-Jul-22 06:59N 34°31' E 135°23'3 6.5
2017-Jul-22 06:30N 34°33' E 135°25'1 0.2
2017-Jul-22 00:54N 34°33' E 135°27'1 1.9
2017-Jul-22 00:28N 34°33' E 135°26'0 0.7
2017-Jul-21 23:59N 34°33' E 135°26'1 0.6
2017-Jul-21 23:00N 34°33' E 135°27'0 0.0
2017-Jul-21 22:31N 34°33' E 135°27'0 0.0
2017-Jul-21 22:01N 34°33' E 135°27'0 0.0
2017-Jul-21 05:29N 34°33' E 135°27'0 0.0
2017-Jul-21 03:10N 34°33' E 135°27'0 0.0
2017-Jul-21 03:00N 34°33' E 135°27'0 0.0
2017-Jul-21 01:48N 34°33' E 135°27'0 0.0
2017-Jul-21 01:23N 34°33' E 135°27'0 0.0
2017-Jul-21 01:00N 34°33' E 135°27'0 0.0
2017-Jul-21 00:30N 34°33' E 135°27'0 0.0
2017-Jul-20 23:59N 34°33' E 135°27'3 5.3
2017-Jul-20 23:30N 34°33' E 135°23'4 3.7
2017-Jul-20 22:26N 34°29' E 135°22'1 2.9
2017-Jul-20 22:00N 34°30' E 135°22'1 2.1
2017-Jul-20 21:30N 34°31' E 135°21'5 8.5
2017-Jul-20 20:57N 34°33' E 135°27'0 0.0
2017-Jul-20 20:30N 34°33' E 135°27'0 0.0
2017-Jul-20 20:00N 34°33' E 135°27'0 0.0
2017-Jul-20 08:29N 34°33' E 135°27'4 8.7
2017-Jul-20 08:00N 34°31' E 135°22'611.3
2017-Jul-20 07:29N 34°26' E 135°19'3 4.6
2017-Jul-20 06:56N 34°28' E 135°20'4 9.1
2017-Jul-20 06:30N 34°31' E 135°24'0 0.1
2017-Jul-20 03:48N 34°31' E 135°24'4 1.6
2017-Jul-20 01:22N 34°33' E 135°20'1 3.8
2017-Jul-20 00:59N 34°34' E 135°19'4 7.6
2017-Jul-20 00:29N 34°34' E 135°23'3 5.6
2017-Jul-20 00:00N 34°33' E 135°27'0 0.0
2017-Jul-19 23:30N 34°33' E 135°27'0 0.0
2017-Jul-19 23:00N 34°33' E 135°27'0 0.0
2017-Jul-19 09:40N 34°33' E 135°27'0 0.0
2017-Jul-19 09:30N 34°33' E 135°27'3 6.0
2017-Jul-19 08:55N 34°31' E 135°23'0 0.1
2017-Jul-19 05:48N 34°31' E 135°23'0 0.8
2017-Jul-19 05:30N 34°31' E 135°23'2 4.2
2017-Jul-19 05:00N 34°33' E 135°24'0 0.0
2017-Jul-19 04:30N 34°33' E 135°24'1 1.1
2017-Jul-19 03:57N 34°33' E 135°24'3 5.9
2017-Jul-19 03:28N 34°33' E 135°20'2 3.9
2017-Jul-19 03:00N 34°32' E 135°19'3 0.9
2017-Jul-18 23:41N 34°32' E 135°23'210.5
2017-Jul-18 23:29N 34°30' E 135°21'5 9.5
2017-Jul-18 23:00N 34°26' E 135°19'1 1.3
2017-Jul-18 22:27N 34°27' E 135°19'3 6.3
2017-Jul-18 22:00N 34°29' E 135°20'612.1
2017-Jul-18 21:29N 34°33' E 135°26'1 1.6
2017-Jul-18 21:00N 34°33' E 135°27'0 0.0
2017-Jul-18 20:30N 34°33' E 135°27'0 0.0
2017-Jul-18 05:21N 34°33' E 135°26'3 9.3
2017-Jul-18 05:00N 34°36' E 135°24'1 1.9
2017-Jul-18 04:30N 34°37' E 135°24'1 1.7
2017-Jul-18 04:00N 34°36' E 135°24'0 0.1
2017-Jul-18 03:23N 34°36' E 135°24'0 0.0
2017-Jul-18 02:56N 34°36' E 135°24'2 2.6
2017-Jul-18 02:07N 34°34' E 135°24'0 0.0
2017-Jul-18 02:01N 34°34' E 135°24'0 0.1
2017-Jul-18 01:26N 34°34' E 135°24'1 1.7
2017-Jul-18 00:56N 34°33' E 135°23'3 6.2
2017-Jul-18 00:30N 34°33' E 135°20'2 3.4
2017-Jul-18 00:00N 34°33' E 135°22'4 4.6
2017-Jul-17 23:13N 34°33' E 135°27'0 0.0
2017-Jul-17 23:00N 34°33' E 135°27'0 0.0
2017-Jul-17 22:30N 34°33' E 135°27'0 0.0
2017-Jul-17 07:35N 34°33' E 135°27'0 0.1
2017-Jul-17 07:29N 34°33' E 135°27'2 4.9
2017-Jul-17 07:00N 34°33' E 135°24'2 4.0
2017-Jul-17 06:30N 34°33' E 135°26'0 0.2
2017-Jul-17 05:51N 34°33' E 135°26'0 1.1
2017-Jul-17 05:30N 34°33' E 135°27'0 0.2
2017-Jul-17 04:40N 34°33' E 135°27'0 0.0
2017-Jul-17 04:30N 34°33' E 135°27'0 0.0
2017-Jul-17 03:52N 34°33' E 135°27'0 0.0
2017-Jul-17 02:48N 34°33' E 135°27'0 0.0
2017-Jul-17 01:24N 34°33' E 135°27'0 0.0
2017-Jul-17 00:59N 34°33' E 135°27'0 0.0
2017-Jul-17 00:27N 34°33' E 135°27'0 0.0
2017-Jul-17 00:00N 34°33' E 135°27'710.4
2017-Jul-16 23:20N 34°29' E 135°20'3 8.6
2017-Jul-16 23:00N 34°26' E 135°19'1 1.4
2017-Jul-16 22:30N 34°26' E 135°19'3 6.6
2017-Jul-16 21:58N 34°30' E 135°21'510.2
2017-Jul-16 21:30N 34°33' E 135°24'2 3.5
2017-Jul-16 21:00N 34°33' E 135°27'0 0.0
2017-Jul-16 20:24N 34°33' E 135°27'0 0.0
2017-Jul-16 05:16N 34°33' E 135°27'0 0.0
2017-Jul-16 04:58N 34°33' E 135°27'0 0.0
2017-Jul-16 04:30N 34°33' E 135°27'0 0.0
2017-Jul-16 04:00N 34°33' E 135°27'0 0.0
2017-Jul-16 03:29N 34°33' E 135°27'1 1.1
2017-Jul-16 02:59N 34°33' E 135°26'0 0.0
2017-Jul-16 02:30N 34°33' E 135°26'0 0.0
2017-Jul-16 02:00N 34°33' E 135°26'0 0.3
2017-Jul-16 01:30N 34°33' E 135°26'2 3.7
2017-Jul-16 00:55N 34°33' E 135°23'3 6.2
2017-Jul-16 00:30N 34°34' E 135°20'  

Dump ship's entire track history